createdAt,value
2023-04-13T00:01:59.595Z,9.40
2023-04-13T00:07:05.059Z,8.52
2023-04-13T00:12:07.419Z,9.35
2023-04-13T00:17:10.151Z,8.15
2023-04-13T00:22:12.872Z,8.75
2023-04-13T00:27:15.048Z,8.13
2023-04-13T00:32:17.497Z,9.25
2023-04-13T00:37:20.465Z,9.57
2023-04-13T00:42:22.803Z,9.60
2023-04-13T00:47:29.090Z,10.27
2023-04-13T00:52:31.363Z,9.40
2023-04-13T00:57:34.532Z,10.07
2023-04-13T01:02:37.970Z,8.77
2023-04-13T01:07:51.865Z,9.38
2023-04-13T01:12:57.318Z,8.20
2023-04-13T01:18:07.624Z,8.60
2023-04-13T01:23:12.944Z,8.25
2023-04-13T01:28:19.813Z,7.78
2023-04-13T01:33:22.833Z,6.90
2023-04-13T01:38:25.668Z,6.43
2023-04-13T01:43:28.443Z,7.60
2023-04-13T01:48:37.867Z,6.80
2023-04-13T01:54:02.401Z,9.10
2023-04-13T01:59:05.446Z,8.07
2023-04-13T02:04:08.163Z,7.10
2023-04-13T02:09:11.435Z,7.57
2023-04-13T02:14:13.892Z,6.90
2023-04-13T02:19:16.068Z,7.00
2023-04-13T02:24:18.312Z,6.30
2023-04-13T02:29:20.477Z,5.50
2023-04-13T02:34:23.365Z,6.25
2023-04-13T02:39:25.591Z,6.55
2023-04-13T02:44:27.713Z,7.25
2023-04-13T02:49:29.952Z,7.25
2023-04-13T02:54:32.137Z,6.85
2023-04-13T02:59:34.311Z,7.47
2023-04-13T03:04:36.538Z,6.78
2023-04-13T03:09:39.990Z,6.68
2023-04-13T03:14:42.104Z,5.93
2023-04-13T03:19:48.095Z,6.38
2023-04-13T03:24:51.018Z,6.13
2023-04-13T03:29:53.190Z,6.43
2023-04-13T03:34:56.021Z,6.18
2023-04-13T03:39:59.147Z,6.78
2023-04-13T03:45:01.240Z,6.47
2023-04-13T03:50:04.149Z,6.30
2023-04-13T03:55:07.102Z,7.93
2023-04-13T04:00:14.358Z,6.55
2023-04-13T04:05:17.534Z,7.28
2023-04-13T04:10:20.046Z,7.00
2023-04-13T04:15:22.623Z,6.68
2023-04-13T04:20:25.023Z,6.53
2023-04-13T04:25:27.885Z,6.93
2023-04-13T04:30:30.687Z,6.63
2023-04-13T04:35:35.928Z,7.22
2023-04-13T04:40:38.377Z,7.43
2023-04-13T04:51:09.384Z,6.93
2023-04-13T04:56:11.468Z,6.65
2023-04-13T05:01:13.755Z,6.78
2023-04-13T05:06:16.153Z,8.80
2023-04-13T05:11:18.384Z,8.65
2023-04-13T05:16:20.556Z,8.30
2023-04-13T05:21:23.317Z,9.50
2023-04-13T05:26:25.820Z,10.07
2023-04-13T05:31:29.090Z,10.48
2023-04-13T05:36:32.570Z,10.32
2023-04-13T05:41:34.764Z,11.35
2023-04-13T05:46:37.028Z,13.00
2023-04-13T05:51:39.637Z,11.88
2023-04-13T05:56:41.837Z,10.77
2023-04-13T06:01:43.983Z,9.57
2023-04-13T06:06:46.796Z,8.82
2023-04-13T06:11:48.873Z,9.55
2023-04-13T06:16:52.925Z,9.85
2023-04-13T06:21:55.161Z,9.63
2023-04-13T06:26:58.610Z,10.25
2023-04-13T06:32:00.834Z,10.45
2023-04-13T06:37:06.345Z,9.75
2023-04-13T06:42:08.473Z,8.98
2023-04-13T06:47:10.762Z,9.57
2023-04-13T06:52:13.062Z,10.07
2023-04-13T06:57:15.125Z,9.48
2023-04-13T07:02:17.857Z,9.25
2023-04-13T07:07:20.593Z,9.50
2023-04-13T07:12:22.721Z,9.05
2023-04-13T07:17:25.204Z,9.00
2023-04-13T07:22:32.758Z,7.88
2023-04-13T07:27:34.981Z,8.02
2023-04-13T07:32:37.386Z,8.43
2023-04-13T07:37:39.868Z,7.95
2023-04-13T07:42:42.386Z,7.47
2023-04-13T07:47:44.545Z,7.90
2023-04-13T07:52:46.760Z,7.43
2023-04-13T07:57:49.168Z,5.72
2023-04-13T08:02:51.983Z,5.07
2023-04-13T08:07:54.361Z,5.65
2023-04-13T08:12:56.863Z,6.63
2023-04-13T08:18:00.117Z,4.70
2023-04-13T08:23:02.375Z,5.03
2023-04-13T08:28:05.469Z,5.10
2023-04-13T08:33:08.100Z,5.35
2023-04-13T08:38:10.572Z,5.07
2023-04-13T08:43:13.689Z,4.35
2023-04-13T08:48:19.660Z,3.88
2023-04-13T08:53:22.061Z,3.80
2023-04-13T08:58:26.202Z,3.72
2023-04-13T09:03:34.253Z,3.85
2023-04-13T09:08:37.040Z,4.07
2023-04-13T09:13:39.245Z,4.55
2023-04-13T09:18:54.397Z,3.83
2023-04-13T09:23:59.403Z,3.50
2023-04-13T09:29:03.565Z,3.78
2023-04-13T09:34:06.655Z,4.28
2023-04-13T09:39:08.845Z,4.40
2023-04-13T09:44:18.240Z,3.88
2023-04-13T09:54:23.231Z,3.38
2023-04-13T09:59:30.161Z,3.17
2023-04-13T10:04:35.072Z,2.78
2023-04-13T10:09:37.412Z,3.42
2023-04-13T10:14:43.956Z,2.70
2023-04-13T10:19:51.746Z,2.95
2023-04-13T10:24:53.902Z,2.58
2023-04-13T10:29:56.566Z,2.92
2023-04-13T10:35:16.604Z,2.25
2023-04-13T10:40:18.840Z,2.40
2023-04-13T10:45:26.676Z,2.15
2023-04-13T10:50:29.014Z,2.97
2023-04-13T10:55:35.639Z,2.50
2023-04-13T11:00:46.131Z,2.75
2023-04-13T11:06:00.303Z,2.50
2023-04-13T11:11:02.502Z,2.50
2023-04-13T11:16:06.059Z,2.53
2023-04-13T11:21:18.188Z,2.38
2023-04-13T11:26:32.031Z,2.50
2023-04-13T11:31:42.435Z,2.65
2023-04-13T11:36:49.244Z,2.70
2023-04-13T11:41:52.036Z,2.47
2023-04-13T11:46:54.404Z,2.55
2023-04-13T11:51:57.140Z,2.70
2023-04-13T11:56:59.310Z,2.75
2023-04-13T12:02:05.330Z,2.85
2023-04-13T12:07:14.126Z,2.50
2023-04-13T12:12:50.783Z,2.97
2023-04-13T12:17:48.646Z,2.78
2023-04-13T12:23:00.171Z,2.63
2023-04-13T12:28:05.256Z,2.92
2023-04-13T12:33:07.569Z,2.72
2023-04-13T12:38:09.801Z,2.90
2023-04-13T12:43:11.949Z,2.80
2023-04-13T12:48:14.130Z,2.38
2023-04-13T12:53:16.628Z,2.50
2023-04-13T12:58:18.964Z,2.45
2023-04-13T13:03:21.788Z,2.40
2023-04-13T13:08:24.052Z,2.38
2023-04-13T13:13:26.108Z,2.75
2023-04-13T13:18:38.418Z,2.15
2023-04-13T13:23:49.218Z,2.53
2023-04-13T13:28:52.406Z,2.33
2023-04-13T13:33:57.588Z,2.20
2023-04-13T13:39:00.438Z,2.65
2023-04-13T13:44:02.774Z,2.40
2023-04-13T13:49:05.657Z,2.47
2023-04-13T13:54:07.958Z,2.92
2023-04-13T13:59:10.113Z,2.47
2023-04-13T14:04:13.289Z,2.83
2023-04-13T14:09:15.483Z,2.75
2023-04-13T14:14:21.984Z,2.67
2023-04-13T14:19:25.039Z,2.40
2023-04-13T14:24:27.552Z,2.45
2023-04-13T14:29:29.862Z,2.30
2023-04-13T14:34:32.008Z,2.38
2023-04-13T14:39:34.541Z,2.42
2023-04-13T14:44:37.070Z,2.65
2023-04-13T14:49:39.348Z,2.60
2023-04-13T14:54:42.153Z,2.58
2023-04-13T14:59:45.264Z,2.85
2023-04-13T15:04:48.518Z,3.63
2023-04-13T15:09:50.805Z,3.35
2023-04-13T15:14:53.128Z,2.60
2023-04-13T15:19:55.503Z,2.78
2023-04-13T15:24:57.646Z,2.58
2023-04-13T15:30:00.642Z,2.53
2023-04-13T15:35:03.248Z,2.55
2023-04-13T15:40:08.028Z,2.58
2023-04-13T15:45:10.763Z,2.80
2023-04-13T15:50:13.777Z,2.78
2023-04-13T15:55:15.996Z,2.50
2023-04-13T16:00:18.698Z,3.08
2023-04-13T16:05:21.471Z,2.95
2023-04-13T16:10:23.749Z,2.42
2023-04-13T16:15:26.630Z,2.45
2023-04-13T16:20:29.057Z,2.45
2023-04-13T16:25:31.897Z,3.30
2023-04-13T16:30:34.190Z,2.75
2023-04-13T16:35:37.087Z,2.80
2023-04-13T16:40:39.547Z,3.20
2023-04-13T16:45:42.547Z,3.42
2023-04-13T16:50:44.759Z,2.70
2023-04-13T16:55:51.216Z,3.00
2023-04-13T17:00:54.055Z,3.10
2023-04-13T17:05:56.719Z,2.97
2023-04-13T17:10:59.516Z,3.00
2023-04-13T17:16:02.069Z,3.55
2023-04-13T17:21:04.717Z,3.80
2023-04-13T17:26:07.082Z,3.28
2023-04-13T17:31:09.530Z,3.17
2023-04-13T17:36:11.977Z,3.42
2023-04-13T17:41:14.317Z,4.00
2023-04-13T17:46:16.605Z,4.13
2023-04-13T17:51:18.978Z,5.88
2023-04-13T17:56:21.168Z,4.30
2023-04-13T18:01:26.046Z,4.53
2023-04-13T18:06:28.592Z,4.90
2023-04-13T18:11:31.075Z,5.68
2023-04-13T18:16:33.499Z,5.78
2023-04-13T18:21:37.399Z,5.13
2023-04-13T18:26:40.053Z,6.50
2023-04-13T18:31:42.528Z,6.72
2023-04-13T18:36:45.005Z,6.20
2023-04-13T18:41:47.694Z,6.07
2023-04-13T18:46:49.909Z,4.97
2023-04-13T18:51:52.180Z,4.82
2023-04-13T18:56:54.678Z,5.47
2023-04-13T19:01:57.110Z,5.82
2023-04-13T19:06:59.333Z,5.60
2023-04-13T19:12:03.134Z,5.03
2023-04-13T19:17:06.043Z,5.20
2023-04-13T19:22:08.291Z,5.07
2023-04-13T19:27:10.702Z,5.47
2023-04-13T19:32:13.298Z,5.50
2023-04-13T19:37:16.820Z,5.93
2023-04-13T19:42:19.136Z,5.97
2023-04-13T19:47:21.544Z,6.82
2023-04-13T19:52:23.851Z,6.28
2023-04-13T19:57:26.292Z,6.55
2023-04-13T20:02:28.993Z,6.45
2023-04-13T20:07:31.405Z,6.35
2023-04-13T20:12:34.238Z,6.95
2023-04-13T20:17:36.639Z,7.30
2023-04-13T20:22:39.329Z,7.32
2023-04-13T20:27:42.354Z,7.35
2023-04-13T20:32:44.953Z,7.35
2023-04-13T20:37:47.385Z,7.72
2023-04-13T20:42:49.660Z,7.85
2023-04-13T20:47:57.371Z,7.90
2023-04-13T20:53:00.122Z,7.78
2023-04-13T20:58:02.719Z,9.07
2023-04-13T21:03:05.482Z,8.70
2023-04-13T21:08:08.075Z,8.38
2023-04-13T21:13:11.224Z,7.60
2023-04-13T21:18:13.399Z,8.85
2023-04-13T21:23:16.857Z,9.55
2023-04-13T21:28:19.120Z,9.15
2023-04-13T21:33:21.770Z,8.07
2023-04-13T21:38:24.023Z,7.22
2023-04-13T21:43:26.573Z,7.18
2023-04-13T21:48:28.809Z,8.13
2023-04-13T21:53:31.270Z,7.75
2023-04-13T21:58:41.732Z,7.93
2023-04-13T22:03:47.286Z,7.95
2023-04-13T22:08:49.821Z,7.60
2023-04-13T22:13:52.099Z,8.20
2023-04-13T22:18:54.303Z,8.38
2023-04-13T22:23:56.654Z,8.00
2023-04-13T22:28:59.337Z,7.28
2023-04-13T22:34:02.067Z,7.97
2023-04-13T22:39:04.380Z,7.97
2023-04-13T22:44:06.716Z,8.10
2023-04-13T22:49:10.344Z,8.18
2023-04-13T22:54:12.680Z,7.95
2023-04-13T22:59:16.794Z,6.40
2023-04-13T23:04:19.294Z,6.90
2023-04-13T23:09:21.643Z,6.57
2023-04-13T23:14:24.101Z,6.10
2023-04-13T23:19:26.585Z,6.03
2023-04-13T23:24:29.061Z,5.97
2023-04-13T23:29:31.515Z,6.57
2023-04-13T23:34:33.729Z,6.57
2023-04-13T23:39:35.976Z,7.20
2023-04-13T23:44:38.188Z,6.90
2023-04-13T23:49:40.511Z,6.90
2023-04-13T23:54:42.685Z,7.60
2023-04-13T23:59:45.138Z,7.95
